sensor_id;sensor_type;location;lat;lon;timestamp;pressure;altitude;pressure_sealevel;temperature
20736;BMP180;10528;52.124;5.196;2023-07-24T00:01:58;100351.00;;;25.20
20736;BMP180;10528;52.124;5.196;2023-07-24T00:04:25;100341.00;;;25.20
20736;BMP180;10528;52.124;5.196;2023-07-24T00:06:52;100343.00;;;25.20
20736;BMP180;10528;52.124;5.196;2023-07-24T00:09:19;100342.00;;;25.20
20736;BMP180;10528;52.124;5.196;2023-07-24T00:11:45;100345.00;;;25.10
20736;BMP180;10528;52.124;5.196;2023-07-24T00:14:12;100355.00;;;25.20
20736;BMP180;10528;52.124;5.196;2023-07-24T00:16:39;100345.00;;;25.20
20736;BMP180;10528;52.124;5.196;2023-07-24T00:19:06;100335.00;;;25.20
20736;BMP180;10528;52.124;5.196;2023-07-24T00:21:33;100337.00;;;25.20
20736;BMP180;10528;52.124;5.196;2023-07-24T00:24:00;100335.00;;;25.10
20736;BMP180;10528;52.124;5.196;2023-07-24T00:26:27;100317.00;;;25.10
20736;BMP180;10528;52.124;5.196;2023-07-24T00:28:55;100322.00;;;25.10
20736;BMP180;10528;52.124;5.196;2023-07-24T00:31:22;100324.00;;;25.10
20736;BMP180;10528;52.124;5.196;2023-07-24T00:33:49;100324.00;;;25.10
20736;BMP180;10528;52.124;5.196;2023-07-24T00:36:16;100314.00;;;25.00
20736;BMP180;10528;52.124;5.196;2023-07-24T00:38:43;100314.00;;;25.10
20736;BMP180;10528;52.124;5.196;2023-07-24T00:41:10;100317.00;;;25.10
20736;BMP180;10528;52.124;5.196;2023-07-24T00:43:37;100309.00;;;25.10
20736;BMP180;10528;52.124;5.196;2023-07-24T00:46:04;100284.00;;;25.10
20736;BMP180;10528;52.124;5.196;2023-07-24T00:48:31;100306.00;;;25.10
20736;BMP180;10528;52.124;5.196;2023-07-24T00:50:58;100298.00;;;25.10
20736;BMP180;10528;52.124;5.196;2023-07-24T00:53:26;100289.00;;;25.10
20736;BMP180;10528;52.124;5.196;2023-07-24T00:55:53;100284.00;;;25.10
20736;BMP180;10528;52.124;5.196;2023-07-24T00:58:22;100283.00;;;25.10
20736;BMP180;10528;52.124;5.196;2023-07-24T01:00:50;100282.00;;;25.00
20736;BMP180;10528;52.124;5.196;2023-07-24T01:03:17;100283.00;;;25.00
20736;BMP180;10528;52.124;5.196;2023-07-24T01:05:44;100283.00;;;25.00
20736;BMP180;10528;52.124;5.196;2023-07-24T01:08:11;100286.00;;;25.00
20736;BMP180;10528;52.124;5.196;2023-07-24T01:10:38;100272.00;;;25.00
20736;BMP180;10528;52.124;5.196;2023-07-24T01:13:19;100289.00;;;25.00
20736;BMP180;10528;52.124;5.196;2023-07-24T01:15:56;100274.00;;;25.00
20736;BMP180;10528;52.124;5.196;2023-07-24T01:18:25;100281.00;;;25.00
20736;BMP180;10528;52.124;5.196;2023-07-24T01:20:57;100284.00;;;25.00
20736;BMP180;10528;52.124;5.196;2023-07-24T01:24:08;100277.00;;;25.00
20736;BMP180;10528;52.124;5.196;2023-07-24T01:26:39;100284.00;;;24.90
20736;BMP180;10528;52.124;5.196;2023-07-24T01:29:05;100271.00;;;24.70
20736;BMP180;10528;52.124;5.196;2023-07-24T01:31:32;100285.00;;;24.90
20736;BMP180;10528;52.124;5.196;2023-07-24T01:33:59;100280.00;;;24.90
20736;BMP180;10528;52.124;5.196;2023-07-24T01:36:26;100272.00;;;24.90
20736;BMP180;10528;52.124;5.196;2023-07-24T01:38:54;100277.00;;;24.90
20736;BMP180;10528;52.124;5.196;2023-07-24T01:41:21;100271.00;;;25.00
20736;BMP180;10528;52.124;5.196;2023-07-24T01:43:48;100263.00;;;24.90
20736;BMP180;10528;52.124;5.196;2023-07-24T01:46:15;100253.00;;;24.90
20736;BMP180;10528;52.124;5.196;2023-07-24T01:48:43;100255.00;;;24.90
20736;BMP180;10528;52.124;5.196;2023-07-24T01:51:09;100247.00;;;24.90
20736;BMP180;10528;52.124;5.196;2023-07-24T01:53:36;100247.00;;;24.80
20736;BMP180;10528;52.124;5.196;2023-07-24T01:56:03;100245.00;;;24.90
20736;BMP180;10528;52.124;5.196;2023-07-24T01:58:30;100243.00;;;24.90
20736;BMP180;10528;52.124;5.196;2023-07-24T02:00:58;100244.00;;;24.90
20736;BMP180;10528;52.124;5.196;2023-07-24T02:03:26;100245.00;;;24.90
20736;BMP180;10528;52.124;5.196;2023-07-24T02:05:53;100228.00;;;24.90
20736;BMP180;10528;52.124;5.196;2023-07-24T02:08:20;100239.00;;;24.90
20736;BMP180;10528;52.124;5.196;2023-07-24T02:10:50;100243.00;;;24.90
20736;BMP180;10528;52.124;5.196;2023-07-24T02:13:17;100243.00;;;24.90
20736;BMP180;10528;52.124;5.196;2023-07-24T02:15:48;100235.00;;;24.90
20736;BMP180;10528;52.124;5.196;2023-07-24T02:18:15;100222.00;;;24.90
20736;BMP180;10528;52.124;5.196;2023-07-24T02:20:49;100231.00;;;24.90
20736;BMP180;10528;52.124;5.196;2023-07-24T02:23:17;100224.00;;;24.90
20736;BMP180;10528;52.124;5.196;2023-07-24T02:25:44;100214.00;;;24.90
20736;BMP180;10528;52.124;5.196;2023-07-24T02:28:11;100219.00;;;24.90
20736;BMP180;10528;52.124;5.196;2023-07-24T02:30:39;100213.00;;;24.90
20736;BMP180;10528;52.124;5.196;2023-07-24T02:33:06;100216.00;;;24.90
20736;BMP180;10528;52.124;5.196;2023-07-24T02:35:41;100214.00;;;24.90
20736;BMP180;10528;52.124;5.196;2023-07-24T02:38:08;100204.00;;;24.90
20736;BMP180;10528;52.124;5.196;2023-07-24T02:40:35;100195.00;;;24.90
20736;BMP180;10528;52.124;5.196;2023-07-24T02:43:03;100195.00;;;24.90
20736;BMP180;10528;52.124;5.196;2023-07-24T02:45:29;100200.00;;;24.90
20736;BMP180;10528;52.124;5.196;2023-07-24T02:47:56;100207.00;;;24.90
20736;BMP180;10528;52.124;5.196;2023-07-24T02:50:23;100209.00;;;24.90
20736;BMP180;10528;52.124;5.196;2023-07-24T02:52:50;100208.00;;;24.90
20736;BMP180;10528;52.124;5.196;2023-07-24T02:55:17;100199.00;;;24.90
20736;BMP180;10528;52.124;5.196;2023-07-24T02:57:44;100201.00;;;24.80
20736;BMP180;10528;52.124;5.196;2023-07-24T03:00:12;100206.00;;;24.80
20736;BMP180;10528;52.124;5.196;2023-07-24T03:02:39;100209.00;;;24.80
20736;BMP180;10528;52.124;5.196;2023-07-24T03:05:07;100200.00;;;24.80
20736;BMP180;10528;52.124;5.196;2023-07-24T03:07:34;100211.00;;;24.80
20736;BMP180;10528;52.124;5.196;2023-07-24T03:10:02;100195.00;;;24.70
20736;BMP180;10528;52.124;5.196;2023-07-24T03:12:30;100199.00;;;24.80
20736;BMP180;10528;52.124;5.196;2023-07-24T03:14:56;100197.00;;;24.80
20736;BMP180;10528;52.124;5.196;2023-07-24T03:17:23;100202.00;;;24.70
20736;BMP180;10528;52.124;5.196;2023-07-24T03:19:50;100183.00;;;24.80
20736;BMP180;10528;52.124;5.196;2023-07-24T03:22:17;100195.00;;;24.80
20736;BMP180;10528;52.124;5.196;2023-07-24T03:24:44;100181.00;;;24.70
20736;BMP180;10528;52.124;5.196;2023-07-24T03:27:12;100181.00;;;24.60
20736;BMP180;10528;52.124;5.196;2023-07-24T03:29:39;100176.00;;;24.70
20736;BMP180;10528;52.124;5.196;2023-07-24T03:32:07;100177.00;;;24.70
20736;BMP180;10528;52.124;5.196;2023-07-24T03:34:34;100182.00;;;24.70
20736;BMP180;10528;52.124;5.196;2023-07-24T03:37:01;100190.00;;;24.70
20736;BMP180;10528;52.124;5.196;2023-07-24T03:39:30;100190.00;;;24.70
20736;BMP180;10528;52.124;5.196;2023-07-24T03:41:57;100180.00;;;24.70
20736;BMP180;10528;52.124;5.196;2023-07-24T03:44:23;100190.00;;;24.70
20736;BMP180;10528;52.124;5.196;2023-07-24T03:46:50;100179.00;;;24.60
20736;BMP180;10528;52.124;5.196;2023-07-24T03:49:17;100186.00;;;24.60
20736;BMP180;10528;52.124;5.196;2023-07-24T03:51:44;100189.00;;;24.60
20736;BMP180;10528;52.124;5.196;2023-07-24T03:54:11;100184.00;;;24.60
20736;BMP180;10528;52.124;5.196;2023-07-24T03:56:38;100183.00;;;24.60
20736;BMP180;10528;52.124;5.196;2023-07-24T03:59:06;100182.00;;;24.60
20736;BMP180;10528;52.124;5.196;2023-07-24T04:01:33;100182.00;;;24.60
20736;BMP180;10528;52.124;5.196;2023-07-24T04:03:59;100185.00;;;24.60
20736;BMP180;10528;52.124;5.196;2023-07-24T04:06:27;100177.00;;;24.60
20736;BMP180;10528;52.124;5.196;2023-07-24T04:08:54;100180.00;;;24.60
20736;BMP180;10528;52.124;5.196;2023-07-24T04:11:21;100178.00;;;24.60
20736;BMP180;10528;52.124;5.196;2023-07-24T04:13:48;100168.00;;;24.60
20736;BMP180;10528;52.124;5.196;2023-07-24T04:16:15;100166.00;;;24.50
20736;BMP180;10528;52.124;5.196;2023-07-24T04:18:41;100169.00;;;24.50
20736;BMP180;10528;52.124;5.196;2023-07-24T04:21:08;100165.00;;;24.50
20736;BMP180;10528;52.124;5.196;2023-07-24T04:23:35;100173.00;;;24.50
20736;BMP180;10528;52.124;5.196;2023-07-24T04:26:04;100170.00;;;24.50
20736;BMP180;10528;52.124;5.196;2023-07-24T04:28:31;100174.00;;;24.50
20736;BMP180;10528;52.124;5.196;2023-07-24T04:31:01;100177.00;;;24.50
20736;BMP180;10528;52.124;5.196;2023-07-24T04:33:28;100184.00;;;24.50
20736;BMP180;10528;52.124;5.196;2023-07-24T04:35:56;100183.00;;;24.50
20736;BMP180;10528;52.124;5.196;2023-07-24T04:38:23;100173.00;;;24.50
20736;BMP180;10528;52.124;5.196;2023-07-24T04:40:50;100185.00;;;24.50
20736;BMP180;10528;52.124;5.196;2023-07-24T04:43:17;100189.00;;;24.50
20736;BMP180;10528;52.124;5.196;2023-07-24T04:45:45;100194.00;;;24.50
20736;BMP180;10528;52.124;5.196;2023-07-24T04:48:12;100190.00;;;24.50
20736;BMP180;10528;52.124;5.196;2023-07-24T04:50:38;100188.00;;;24.40
20736;BMP180;10528;52.124;5.196;2023-07-24T04:53:05;100184.00;;;24.40
20736;BMP180;10528;52.124;5.196;2023-07-24T04:55:32;100180.00;;;24.20
20736;BMP180;10528;52.124;5.196;2023-07-24T04:57:59;100176.00;;;24.30
20736;BMP180;10528;52.124;5.196;2023-07-24T05:00:26;100170.00;;;24.20
20736;BMP180;10528;52.124;5.196;2023-07-24T05:02:53;100176.00;;;24.20
20736;BMP180;10528;52.124;5.196;2023-07-24T05:05:20;100187.00;;;24.30
20736;BMP180;10528;52.124;5.196;2023-07-24T05:07:47;100182.00;;;24.30
20736;BMP180;10528;52.124;5.196;2023-07-24T05:10:14;100185.00;;;24.40
20736;BMP180;10528;52.124;5.196;2023-07-24T05:12:41;100184.00;;;24.40
20736;BMP180;10528;52.124;5.196;2023-07-24T05:15:11;100183.00;;;24.50
20736;BMP180;10528;52.124;5.196;2023-07-24T05:17:37;100189.00;;;24.50
20736;BMP180;10528;52.124;5.196;2023-07-24T05:20:06;100186.00;;;24.50
20736;BMP180;10528;52.124;5.196;2023-07-24T05:22:33;100186.00;;;24.60
20736;BMP180;10528;52.124;5.196;2023-07-24T05:25:00;100183.00;;;24.60
20736;BMP180;10528;52.124;5.196;2023-07-24T05:27:27;100175.00;;;24.60
20736;BMP180;10528;52.124;5.196;2023-07-24T05:29:54;100188.00;;;24.60
20736;BMP180;10528;52.124;5.196;2023-07-24T05:32:21;100196.00;;;24.60
20736;BMP180;10528;52.124;5.196;2023-07-24T05:34:48;100184.00;;;24.70
20736;BMP180;10528;52.124;5.196;2023-07-24T05:37:15;100185.00;;;24.70
20736;BMP180;10528;52.124;5.196;2023-07-24T05:39:41;100188.00;;;24.70
20736;BMP180;10528;52.124;5.196;2023-07-24T05:42:08;100179.00;;;24.70
20736;BMP180;10528;52.124;5.196;2023-07-24T05:44:35;100182.00;;;24.80
20736;BMP180;10528;52.124;5.196;2023-07-24T05:47:04;100187.00;;;24.90
20736;BMP180;10528;52.124;5.196;2023-07-24T05:49:31;100191.00;;;24.90
20736;BMP180;10528;52.124;5.196;2023-07-24T05:51:57;100189.00;;;25.00
20736;BMP180;10528;52.124;5.196;2023-07-24T05:54:24;100195.00;;;25.20
20736;BMP180;10528;52.124;5.196;2023-07-24T05:56:52;100192.00;;;25.30
20736;BMP180;10528;52.124;5.196;2023-07-24T05:59:19;100200.00;;;25.40
20736;BMP180;10528;52.124;5.196;2023-07-24T06:01:46;100191.00;;;25.50
20736;BMP180;10528;52.124;5.196;2023-07-24T06:04:13;100199.00;;;25.60
20736;BMP180;10528;52.124;5.196;2023-07-24T06:06:40;100195.00;;;25.70
20736;BMP180;10528;52.124;5.196;2023-07-24T06:09:07;100201.00;;;25.90
20736;BMP180;10528;52.124;5.196;2023-07-24T06:11:34;100196.00;;;26.10
20736;BMP180;10528;52.124;5.196;2023-07-24T06:14:00;100193.00;;;26.40
20736;BMP180;10528;52.124;5.196;2023-07-24T06:16:27;100193.00;;;26.60
20736;BMP180;10528;52.124;5.196;2023-07-24T06:18:54;100190.00;;;26.70
20736;BMP180;10528;52.124;5.196;2023-07-24T06:21:21;100192.00;;;26.70
20736;BMP180;10528;52.124;5.196;2023-07-24T06:23:48;100199.00;;;26.70
20736;BMP180;10528;52.124;5.196;2023-07-24T06:26:15;100195.00;;;26.50
20736;BMP180;10528;52.124;5.196;2023-07-24T06:28:43;100206.00;;;26.40
20736;BMP180;10528;52.124;5.196;2023-07-24T06:31:10;100209.00;;;26.40
20736;BMP180;10528;52.124;5.196;2023-07-24T06:33:36;100205.00;;;26.30
20736;BMP180;10528;52.124;5.196;2023-07-24T06:36:04;100202.00;;;26.30
20736;BMP180;10528;52.124;5.196;2023-07-24T06:38:35;100211.00;;;26.10
20736;BMP180;10528;52.124;5.196;2023-07-24T06:41:02;100206.00;;;26.10
20736;BMP180;10528;52.124;5.196;2023-07-24T06:43:29;100215.00;;;26.00
20736;BMP180;10528;52.124;5.196;2023-07-24T06:45:56;100213.00;;;26.00
20736;BMP180;10528;52.124;5.196;2023-07-24T06:48:23;100225.00;;;25.90
20736;BMP180;10528;52.124;5.196;2023-07-24T06:50:50;100227.00;;;25.90
20736;BMP180;10528;52.124;5.196;2023-07-24T06:53:17;100222.00;;;25.80
20736;BMP180;10528;52.124;5.196;2023-07-24T06:55:44;100225.00;;;25.80
20736;BMP180;10528;52.124;5.196;2023-07-24T06:58:11;100211.00;;;25.50
20736;BMP180;10528;52.124;5.196;2023-07-24T07:00:38;100221.00;;;25.70
20736;BMP180;10528;52.124;5.196;2023-07-24T07:03:05;100218.00;;;25.70
20736;BMP180;10528;52.124;5.196;2023-07-24T07:05:32;100221.00;;;25.70
20736;BMP180;10528;52.124;5.196;2023-07-24T07:07:59;100219.00;;;25.80
20736;BMP180;10528;52.124;5.196;2023-07-24T07:10:26;100214.00;;;25.90
20736;BMP180;10528;52.124;5.196;2023-07-24T07:12:53;100218.00;;;26.10
20736;BMP180;10528;52.124;5.196;2023-07-24T07:15:21;100216.00;;;26.30
20736;BMP180;10528;52.124;5.196;2023-07-24T07:17:48;100218.00;;;26.60
20736;BMP180;10528;52.124;5.196;2023-07-24T07:20:15;100213.00;;;26.70
20736;BMP180;10528;52.124;5.196;2023-07-24T07:22:42;100213.00;;;26.70
20736;BMP180;10528;52.124;5.196;2023-07-24T07:25:09;100211.00;;;27.00
20736;BMP180;10528;52.124;5.196;2023-07-24T07:27:36;100219.00;;;27.20
20736;BMP180;10528;52.124;5.196;2023-07-24T07:30:04;100215.00;;;27.20
20736;BMP180;10528;52.124;5.196;2023-07-24T07:32:31;100212.00;;;27.20
20736;BMP180;10528;52.124;5.196;2023-07-24T07:34:58;100201.00;;;27.40
20736;BMP180;10528;52.124;5.196;2023-07-24T07:37:25;100204.00;;;27.70
20736;BMP180;10528;52.124;5.196;2023-07-24T07:39:52;100201.00;;;28.00
20736;BMP180;10528;52.124;5.196;2023-07-24T07:42:19;100197.00;;;28.10
20736;BMP180;10528;52.124;5.196;2023-07-24T07:44:46;100203.00;;;28.00
20736;BMP180;10528;52.124;5.196;2023-07-24T07:47:13;100197.00;;;28.10
20736;BMP180;10528;52.124;5.196;2023-07-24T07:49:40;100203.00;;;28.30
20736;BMP180;10528;52.124;5.196;2023-07-24T07:52:08;100200.00;;;28.40
20736;BMP180;10528;52.124;5.196;2023-07-24T07:54:35;100195.00;;;28.50
20736;BMP180;10528;52.124;5.196;2023-07-24T07:57:03;100199.00;;;28.70
20736;BMP180;10528;52.124;5.196;2023-07-24T07:59:30;100194.00;;;28.80
20736;BMP180;10528;52.124;5.196;2023-07-24T08:01:57;100191.00;;;28.70
20736;BMP180;10528;52.124;5.196;2023-07-24T08:04:24;100186.00;;;28.70
20736;BMP180;10528;52.124;5.196;2023-07-24T08:06:51;100190.00;;;28.50
20736;BMP180;10528;52.124;5.196;2023-07-24T08:09:18;100195.00;;;28.40
20736;BMP180;10528;52.124;5.196;2023-07-24T08:11:45;100188.00;;;28.10
20736;BMP180;10528;52.124;5.196;2023-07-24T08:14:12;100187.00;;;28.00
20736;BMP180;10528;52.124;5.196;2023-07-24T08:16:39;100191.00;;;28.10
20736;BMP180;10528;52.124;5.196;2023-07-24T08:19:06;100193.00;;;28.10
20736;BMP180;10528;52.124;5.196;2023-07-24T08:21:33;100193.00;;;28.10
20736;BMP180;10528;52.124;5.196;2023-07-24T08:23:59;100200.00;;;28.20
20736;BMP180;10528;52.124;5.196;2023-07-24T08:26:28;100196.00;;;28.30
20736;BMP180;10528;52.124;5.196;2023-07-24T08:28:55;100204.00;;;28.40
20736;BMP180;10528;52.124;5.196;2023-07-24T08:31:22;100198.00;;;28.40
20736;BMP180;10528;52.124;5.196;2023-07-24T08:33:49;100196.00;;;28.50
20736;BMP180;10528;52.124;5.196;2023-07-24T08:36:16;100197.00;;;28.50
20736;BMP180;10528;52.124;5.196;2023-07-24T08:38:43;100197.00;;;28.50
20736;BMP180;10528;52.124;5.196;2023-07-24T08:41:13;100194.00;;;28.20
20736;BMP180;10528;52.124;5.196;2023-07-24T08:43:42;100199.00;;;28.40
20736;BMP180;10528;52.124;5.196;2023-07-24T08:46:10;100196.00;;;28.30
20736;BMP180;10528;52.124;5.196;2023-07-24T08:48:41;100198.00;;;28.10
20736;BMP180;10528;52.124;5.196;2023-07-24T08:51:15;100202.00;;;28.40
20736;BMP180;10528;52.124;5.196;2023-07-24T08:53:43;100190.00;;;28.50
20736;BMP180;10528;52.124;5.196;2023-07-24T08:56:12;100208.00;;;28.50
20736;BMP180;10528;52.124;5.196;2023-07-24T08:58:39;100198.00;;;28.20
20736;BMP180;10528;52.124;5.196;2023-07-24T09:01:08;100196.00;;;28.30
20736;BMP180;10528;52.124;5.196;2023-07-24T09:03:36;100193.00;;;28.20
20736;BMP180;10528;52.124;5.196;2023-07-24T09:06:03;100182.00;;;28.00
20736;BMP180;10528;52.124;5.196;2023-07-24T09:08:41;100192.00;;;28.10
20736;BMP180;10528;52.124;5.196;2023-07-24T09:11:10;100191.00;;;28.20
20736;BMP180;10528;52.124;5.196;2023-07-24T09:13:41;100177.00;;;28.10
20736;BMP180;10528;52.124;5.196;2023-07-24T09:16:20;100186.00;;;28.10
20736;BMP180;10528;52.124;5.196;2023-07-24T09:18:47;100174.00;;;28.10
20736;BMP180;10528;52.124;5.196;2023-07-24T09:21:32;100176.00;;;28.00
20736;BMP180;10528;52.124;5.196;2023-07-24T09:24:17;100183.00;;;27.80
20736;BMP180;10528;52.124;5.196;2023-07-24T09:26:52;100185.00;;;27.50
20736;BMP180;10528;52.124;5.196;2023-07-24T09:29:31;100190.00;;;27.60
20736;BMP180;10528;52.124;5.196;2023-07-24T09:31:59;100185.00;;;27.60
20736;BMP180;10528;52.124;5.196;2023-07-24T09:34:26;100158.00;;;27.60
20736;BMP180;10528;52.124;5.196;2023-07-24T09:36:53;100159.00;;;27.60
20736;BMP180;10528;52.124;5.196;2023-07-24T09:39:25;100162.00;;;27.60
20736;BMP180;10528;52.124;5.196;2023-07-24T09:42:03;100167.00;;;27.50
20736;BMP180;10528;52.124;5.196;2023-07-24T09:44:32;100161.00;;;27.50
20736;BMP180;10528;52.124;5.196;2023-07-24T09:47:00;100164.00;;;27.50
20736;BMP180;10528;52.124;5.196;2023-07-24T09:49:48;100151.00;;;27.40
20736;BMP180;10528;52.124;5.196;2023-07-24T09:52:18;100160.00;;;27.50
20736;BMP180;10528;52.124;5.196;2023-07-24T09:55:08;100176.00;;;27.50
20736;BMP180;10528;52.124;5.196;2023-07-24T09:57:39;100170.00;;;27.60
20736;BMP180;10528;52.124;5.196;2023-07-24T10:00:07;100167.00;;;27.70
20736;BMP180;10528;52.124;5.196;2023-07-24T10:02:36;100159.00;;;27.80
20736;BMP180;10528;52.124;5.196;2023-07-24T10:05:03;100162.00;;;27.90
20736;BMP180;10528;52.124;5.196;2023-07-24T10:07:31;100167.00;;;27.90
20736;BMP180;10528;52.124;5.196;2023-07-24T10:09:59;100158.00;;;28.00
20736;BMP180;10528;52.124;5.196;2023-07-24T10:12:28;100171.00;;;28.00
20736;BMP180;10528;52.124;5.196;2023-07-24T10:14:57;100167.00;;;28.00
20736;BMP180;10528;52.124;5.196;2023-07-24T10:17:39;100169.00;;;27.80
20736;BMP180;10528;52.124;5.196;2023-07-24T10:20:11;100186.00;;;27.80
20736;BMP180;10528;52.124;5.196;2023-07-24T10:22:42;100175.00;;;27.90
20736;BMP180;10528;52.124;5.196;2023-07-24T10:25:10;100164.00;;;28.00
20736;BMP180;10528;52.124;5.196;2023-07-24T10:27:45;100158.00;;;27.60
20736;BMP180;10528;52.124;5.196;2023-07-24T10:30:14;100155.00;;;27.90
20736;BMP180;10528;52.124;5.196;2023-07-24T10:35:43;100147.00;;;28.10
20736;BMP180;10528;52.124;5.196;2023-07-24T10:38:12;100148.00;;;28.30
20736;BMP180;10528;52.124;5.196;2023-07-24T10:40:41;100137.00;;;28.40
20736;BMP180;10528;52.124;5.196;2023-07-24T10:43:11;100135.00;;;28.60
20736;BMP180;10528;52.124;5.196;2023-07-24T10:45:49;100138.00;;;28.70
20736;BMP180;10528;52.124;5.196;2023-07-24T10:48:23;100145.00;;;28.80
20736;BMP180;10528;52.124;5.196;2023-07-24T10:50:52;100150.00;;;28.80
20736;BMP180;10528;52.124;5.196;2023-07-24T10:53:22;100134.00;;;28.50
20736;BMP180;10528;52.124;5.196;2023-07-24T10:55:51;100135.00;;;28.60
20736;BMP180;10528;52.124;5.196;2023-07-24T10:58:19;100141.00;;;28.60
20736;BMP180;10528;52.124;5.196;2023-07-24T11:00:46;100140.00;;;28.80
20736;BMP180;10528;52.124;5.196;2023-07-24T11:03:15;100144.00;;;28.80
20736;BMP180;10528;52.124;5.196;2023-07-24T11:05:46;100138.00;;;28.90
20736;BMP180;10528;52.124;5.196;2023-07-24T11:08:20;100140.00;;;28.80
20736;BMP180;10528;52.124;5.196;2023-07-24T11:10:51;100136.00;;;28.80
20736;BMP180;10528;52.124;5.196;2023-07-24T11:13:25;100133.00;;;28.50
20736;BMP180;10528;52.124;5.196;2023-07-24T11:15:53;100150.00;;;28.80
20736;BMP180;10528;52.124;5.196;2023-07-24T11:18:22;100148.00;;;28.60
20736;BMP180;10528;52.124;5.196;2023-07-24T11:20:56;100146.00;;;28.60
20736;BMP180;10528;52.124;5.196;2023-07-24T11:23:24;100151.00;;;28.70
20736;BMP180;10528;52.124;5.196;2023-07-24T11:25:52;100148.00;;;28.70
20736;BMP180;10528;52.124;5.196;2023-07-24T11:28:20;100162.00;;;28.60
20736;BMP180;10528;52.124;5.196;2023-07-24T11:30:47;100160.00;;;28.80
20736;BMP180;10528;52.124;5.196;2023-07-24T11:33:16;100159.00;;;28.70
20736;BMP180;10528;52.124;5.196;2023-07-24T11:35:46;100156.00;;;28.80
20736;BMP180;10528;52.124;5.196;2023-07-24T11:38:14;100155.00;;;28.70
20736;BMP180;10528;52.124;5.196;2023-07-24T11:40:43;100165.00;;;28.90
20736;BMP180;10528;52.124;5.196;2023-07-24T11:43:18;100163.00;;;29.00
20736;BMP180;10528;52.124;5.196;2023-07-24T11:45:47;100166.00;;;29.10
20736;BMP180;10528;52.124;5.196;2023-07-24T11:48:23;100156.00;;;28.90
20736;BMP180;10528;52.124;5.196;2023-07-24T11:50:55;100159.00;;;29.00
20736;BMP180;10528;52.124;5.196;2023-07-24T11:53:28;100150.00;;;29.00
20736;BMP180;10528;52.124;5.196;2023-07-24T11:56:00;100148.00;;;28.70
20736;BMP180;10528;52.124;5.196;2023-07-24T11:58:29;100157.00;;;28.40
20736;BMP180;10528;52.124;5.196;2023-07-24T12:00:57;100147.00;;;28.50
20736;BMP180;10528;52.124;5.196;2023-07-24T12:03:28;100153.00;;;28.40
20736;BMP180;10528;52.124;5.196;2023-07-24T12:05:56;100153.00;;;28.70
20736;BMP180;10528;52.124;5.196;2023-07-24T12:08:34;100159.00;;;28.80
20736;BMP180;10528;52.124;5.196;2023-07-24T12:11:02;100160.00;;;28.80
20736;BMP180;10528;52.124;5.196;2023-07-24T12:13:29;100154.00;;;28.80
20736;BMP180;10528;52.124;5.196;2023-07-24T12:15:58;100142.00;;;28.70
20736;BMP180;10528;52.124;5.196;2023-07-24T12:18:26;100140.00;;;28.70
20736;BMP180;10528;52.124;5.196;2023-07-24T12:20:53;100146.00;;;28.70
20736;BMP180;10528;52.124;5.196;2023-07-24T12:23:20;100165.00;;;28.60
20736;BMP180;10528;52.124;5.196;2023-07-24T12:25:47;100214.00;;;28.20
20736;BMP180;10528;52.124;5.196;2023-07-24T12:28:14;100208.00;;;28.20
20736;BMP180;10528;52.124;5.196;2023-07-24T12:30:42;100227.00;;;27.80
20736;BMP180;10528;52.124;5.196;2023-07-24T12:33:09;100219.00;;;27.50
20736;BMP180;10528;52.124;5.196;2023-07-24T12:35:36;100179.00;;;27.40
20736;BMP180;10528;52.124;5.196;2023-07-24T12:38:03;100170.00;;;27.40
20736;BMP180;10528;52.124;5.196;2023-07-24T12:40:30;100180.00;;;27.30
20736;BMP180;10528;52.124;5.196;2023-07-24T12:42:56;100170.00;;;27.30
20736;BMP180;10528;52.124;5.196;2023-07-24T12:45:23;100168.00;;;27.20
20736;BMP180;10528;52.124;5.196;2023-07-24T12:47:50;100171.00;;;27.20
20736;BMP180;10528;52.124;5.196;2023-07-24T12:50:17;100175.00;;;27.10
20736;BMP180;10528;52.124;5.196;2023-07-24T12:52:44;100169.00;;;27.10
20736;BMP180;10528;52.124;5.196;2023-07-24T12:55:12;100167.00;;;27.10
20736;BMP180;10528;52.124;5.196;2023-07-24T12:57:39;100168.00;;;27.00
20736;BMP180;10528;52.124;5.196;2023-07-24T13:00:06;100168.00;;;27.00
20736;BMP180;10528;52.124;5.196;2023-07-24T13:02:33;100169.00;;;27.00
20736;BMP180;10528;52.124;5.196;2023-07-24T13:05:01;100165.00;;;27.00
20736;BMP180;10528;52.124;5.196;2023-07-24T13:07:28;100149.00;;;27.00
20736;BMP180;10528;52.124;5.196;2023-07-24T13:09:56;100159.00;;;27.00
20736;BMP180;10528;52.124;5.196;2023-07-24T13:12:23;100155.00;;;27.00
20736;BMP180;10528;52.124;5.196;2023-07-24T13:14:50;100155.00;;;26.90
20736;BMP180;10528;52.124;5.196;2023-07-24T13:17:16;100152.00;;;26.90
20736;BMP180;10528;52.124;5.196;2023-07-24T13:19:43;100157.00;;;26.90
20736;BMP180;10528;52.124;5.196;2023-07-24T13:22:10;100161.00;;;26.90
20736;BMP180;10528;52.124;5.196;2023-07-24T13:24:37;100163.00;;;26.90
20736;BMP180;10528;52.124;5.196;2023-07-24T13:27:04;100167.00;;;26.80
20736;BMP180;10528;52.124;5.196;2023-07-24T13:29:31;100160.00;;;26.80
20736;BMP180;10528;52.124;5.196;2023-07-24T13:31:58;100160.00;;;26.80
20736;BMP180;10528;52.124;5.196;2023-07-24T13:34:25;100162.00;;;26.70
20736;BMP180;10528;52.124;5.196;2023-07-24T13:36:52;100157.00;;;26.70
20736;BMP180;10528;52.124;5.196;2023-07-24T13:39:19;100161.00;;;26.60
20736;BMP180;10528;52.124;5.196;2023-07-24T13:41:46;100164.00;;;26.70
20736;BMP180;10528;52.124;5.196;2023-07-24T13:44:13;100154.00;;;26.70
20736;BMP180;10528;52.124;5.196;2023-07-24T13:46:40;100157.00;;;26.80
20736;BMP180;10528;52.124;5.196;2023-07-24T13:49:07;100153.00;;;26.80
20736;BMP180;10528;52.124;5.196;2023-07-24T13:51:34;100154.00;;;26.90
20736;BMP180;10528;52.124;5.196;2023-07-24T13:54:01;100171.00;;;26.90
20736;BMP180;10528;52.124;5.196;2023-07-24T13:56:29;100159.00;;;27.00
20736;BMP180;10528;52.124;5.196;2023-07-24T13:59:00;100170.00;;;27.10
20736;BMP180;10528;52.124;5.196;2023-07-24T14:01:27;100172.00;;;27.10
20736;BMP180;10528;52.124;5.196;2023-07-24T14:03:54;100167.00;;;27.10
20736;BMP180;10528;52.124;5.196;2023-07-24T14:06:21;100177.00;;;27.10